createdAt,value
2017-03-21T00:00:26.737Z,997.85
2017-03-21T00:01:39.262Z,997.9
2017-03-21T00:02:51.807Z,997.82
2017-03-21T00:04:04.354Z,997.89
2017-03-21T00:05:16.911Z,997.89
2017-03-21T00:06:29.444Z,997.88
2017-03-21T00:07:41.987Z,997.86
2017-03-21T00:08:53.927Z,997.91
2017-03-21T00:10:06.456Z,997.95
2017-03-21T00:11:18.674Z,997.92
2017-03-21T00:12:31.174Z,997.95
2017-03-21T00:13:43.435Z,997.9
2017-03-21T00:14:55.661Z,997.92
2017-03-21T00:16:07.609Z,997.93
2017-03-21T00:17:19.851Z,997.88
2017-03-21T00:18:32.090Z,997.93
2017-03-21T00:19:44.328Z,997.92
2017-03-21T00:20:56.861Z,997.91
2017-03-21T00:22:09.417Z,997.89
2017-03-21T00:23:21.979Z,997.9
2017-03-21T00:24:34.549Z,997.81
2017-03-21T00:25:47.100Z,997.85
2017-03-21T00:26:59.337Z,997.82
2017-03-21T00:28:12.110Z,997.88
2017-03-21T00:29:24.041Z,997.9
2017-03-21T00:30:36.277Z,997.89
2017-03-21T00:31:48.529Z,997.89
2017-03-21T00:33:00.779Z,997.91
2017-03-21T00:34:13.323Z,997.93
2017-03-21T00:35:24.946Z,997.95
2017-03-21T00:36:37.186Z,997.98
2017-03-21T00:37:49.407Z,997.96
2017-03-21T00:39:01.881Z,997.97
2017-03-21T00:40:14.133Z,997.98
2017-03-21T00:41:26.670Z,997.96
2017-03-21T00:42:39.166Z,997.93
2017-03-21T00:43:51.691Z,997.89
2017-03-21T00:45:03.950Z,997.93
2017-03-21T00:46:16.460Z,997.87
2017-03-21T00:47:29.028Z,997.92
2017-03-21T00:48:41.291Z,997.94
2017-03-21T00:49:53.545Z,997.89
2017-03-21T00:51:05.765Z,997.87
2017-03-21T00:52:18.035Z,997.96
2017-03-21T00:53:30.576Z,997.95
2017-03-21T00:54:42.825Z,997.98
2017-03-21T00:55:55.400Z,997.99
2017-03-21T00:57:07.642Z,997.99
2017-03-21T00:58:20.165Z,997.99
2017-03-21T00:59:32.415Z,998.02
2017-03-21T01:00:44.930Z,998.04
2017-03-21T01:01:57.456Z,998.03
2017-03-21T01:03:10.004Z,998
2017-03-21T01:04:21.996Z,998.04
2017-03-21T01:05:34.544Z,997.97
2017-03-21T01:06:47.339Z,997.95
2017-03-21T01:07:59.554Z,997.98
2017-03-21T01:09:11.519Z,998
2017-03-21T01:10:24.084Z,997.99
2017-03-21T01:11:36.340Z,998
2017-03-21T01:12:48.910Z,997.98
2017-03-21T01:14:00.812Z,998.01
2017-03-21T01:15:13.073Z,998
2017-03-21T01:16:25.605Z,997.99
2017-03-21T01:17:38.123Z,997.97
2017-03-21T01:18:50.711Z,997.98
2017-03-21T01:20:03.270Z,997.95
2017-03-21T01:21:15.788Z,998.03
2017-03-21T01:22:28.025Z,998.03
2017-03-21T01:23:40.245Z,998.07
2017-03-21T01:24:52.491Z,998.07
2017-03-21T01:26:05.043Z,998.01
2017-03-21T01:27:17.586Z,997.96
2017-03-21T01:28:29.831Z,998.03
2017-03-21T01:29:42.088Z,998.09
2017-03-21T01:30:54.630Z,998.07
2017-03-21T01:32:07.177Z,998.01
2017-03-21T01:33:19.394Z,998.06
2017-03-21T01:34:31.890Z,998.07
2017-03-21T01:35:44.415Z,998.05
2017-03-21T01:36:56.957Z,998.03
2017-03-21T01:38:09.511Z,998.04
2017-03-21T01:39:22.078Z,998.05
2017-03-21T01:40:34.320Z,998.01
2017-03-21T01:41:46.864Z,998.06
2017-03-21T01:42:59.416Z,998.04
2017-03-21T01:44:11.950Z,998.06
2017-03-21T01:45:24.482Z,998.08
2017-03-21T01:46:37.028Z,997.99
2017-03-21T01:47:49.571Z,998.05
2017-03-21T01:49:02.093Z,998.04
2017-03-21T01:50:14.612Z,998.07
2017-03-21T01:51:27.154Z,998.02
2017-03-21T01:52:39.660Z,998.04
2017-03-21T01:53:52.179Z,998.04
2017-03-21T01:55:04.753Z,998.02
2017-03-21T01:56:17.299Z,998.03
2017-03-21T01:57:29.530Z,997.98
2017-03-21T01:58:42.064Z,998.07
2017-03-21T01:59:54.604Z,998
2017-03-21T02:01:07.358Z,998.02
2017-03-21T02:02:19.949Z,997.99
2017-03-21T02:03:32.493Z,998
2017-03-21T02:04:44.733Z,998.01
2017-03-21T02:05:56.962Z,998
2017-03-21T02:07:09.201Z,998.02
2017-03-21T02:08:21.461Z,997.95
2017-03-21T02:09:33.697Z,997.98
2017-03-21T02:10:46.194Z,998.01
2017-03-21T02:11:58.716Z,997.92
2017-03-21T02:13:11.262Z,997.99
2017-03-21T02:14:23.502Z,997.99
2017-03-21T02:15:36.081Z,997.99
2017-03-21T02:16:48.624Z,997.98
2017-03-21T02:18:01.172Z,997.97
2017-03-21T02:19:13.411Z,997.98
2017-03-21T02:20:25.960Z,997.97
2017-03-21T02:21:37.880Z,997.9
2017-03-21T02:22:50.419Z,997.9
2017-03-21T02:24:02.948Z,997.91
2017-03-21T02:25:15.486Z,997.91
2017-03-21T02:26:28.014Z,997.86
2017-03-21T02:27:40.462Z,997.89
2017-03-21T02:28:53.025Z,997.9
2017-03-21T02:30:05.555Z,997.87
2017-03-21T02:31:17.798Z,997.86
2017-03-21T02:32:30.324Z,997.9
2017-03-21T02:33:42.868Z,997.89
2017-03-21T02:34:55.416Z,997.94
2017-03-21T02:36:07.649Z,997.9
2017-03-21T02:37:19.571Z,997.97
2017-03-21T02:38:32.127Z,997.89
2017-03-21T02:39:44.388Z,997.96
2017-03-21T02:40:56.941Z,997.97
2017-03-21T02:42:09.478Z,998
2017-03-21T02:43:21.387Z,998.03
2017-03-21T02:44:33.936Z,997.99
2017-03-21T02:45:46.473Z,997.97
2017-03-21T02:46:58.721Z,998.02
2017-03-21T02:48:11.234Z,997.99
2017-03-21T02:49:23.763Z,997.99
2017-03-21T02:50:35.985Z,998.04
2017-03-21T02:51:48.513Z,998
2017-03-21T02:53:01.046Z,998.05
2017-03-21T02:54:13.648Z,998.04
2017-03-21T02:55:26.198Z,998.01
2017-03-21T02:56:38.132Z,998.06
2017-03-21T02:57:49.440Z,998.05
2017-03-21T02:59:01.960Z,998.02
2017-03-21T03:00:14.781Z,998.11
2017-03-21T03:01:27.303Z,998.07
2017-03-21T03:02:39.841Z,998.14
2017-03-21T03:03:52.089Z,998.08
2017-03-21T03:05:04.336Z,998.09
2017-03-21T03:06:16.857Z,998.16
2017-03-21T03:07:29.095Z,998.19
2017-03-21T03:08:41.605Z,998.12
2017-03-21T03:09:54.135Z,998.14
2017-03-21T03:11:06.367Z,998.13
2017-03-21T03:12:18.909Z,998.08
2017-03-21T03:13:31.435Z,998.15
2017-03-21T03:14:43.979Z,998.13
2017-03-21T03:15:56.214Z,998.15
2017-03-21T03:17:08.122Z,998.2
2017-03-21T03:18:20.044Z,998.23
2017-03-21T03:19:32.581Z,998.26
2017-03-21T03:20:44.810Z,998.25
2017-03-21T03:21:57.611Z,998.22
2017-03-21T03:23:10.165Z,998.24
2017-03-21T03:24:22.715Z,998.2
2017-03-21T03:25:35.257Z,998.23
2017-03-21T03:26:47.465Z,998.15
2017-03-21T03:28:00.003Z,998.19
2017-03-21T03:29:12.572Z,998.25
2017-03-21T03:30:24.803Z,998.16
2017-03-21T03:31:37.048Z,998.2
2017-03-21T03:32:49.590Z,998.21
2017-03-21T03:34:02.117Z,998.21
2017-03-21T03:35:14.386Z,998.18
2017-03-21T03:36:26.926Z,998.19
2017-03-21T03:37:38.851Z,998.19
2017-03-21T03:38:51.099Z,998.18
2017-03-21T03:40:03.319Z,998.14
2017-03-21T03:41:15.541Z,998.24
2017-03-21T03:42:28.118Z,998.25
2017-03-21T03:43:40.654Z,998.26
2017-03-21T03:44:53.203Z,998.28
2017-03-21T03:46:05.762Z,998.3
2017-03-21T03:47:18.290Z,998.36
2017-03-21T03:48:30.816Z,998.33
2017-03-21T03:49:43.060Z,998.38
2017-03-21T03:50:55.308Z,998.37
2017-03-21T03:52:07.856Z,998.35
2017-03-21T03:53:20.424Z,998.29
2017-03-21T03:54:32.619Z,998.3
2017-03-21T03:55:44.884Z,998.3
2017-03-21T03:56:57.404Z,998.36
2017-03-21T03:58:09.954Z,998.36
2017-03-21T03:59:22.497Z,998.38
2017-03-21T04:00:34.728Z,998.38
2017-03-21T04:01:46.970Z,998.4
2017-03-21T04:02:59.217Z,998.42
2017-03-21T04:04:11.760Z,998.42
2017-03-21T04:05:23.982Z,998.4
2017-03-21T04:06:36.204Z,998.44
2017-03-21T04:07:48.147Z,998.49
2017-03-21T04:09:00.413Z,998.5
2017-03-21T04:10:12.971Z,998.4
2017-03-21T04:11:25.216Z,998.42
2017-03-21T04:12:37.752Z,998.48
2017-03-21T04:13:50.303Z,998.4
2017-03-21T04:15:02.847Z,998.44
2017-03-21T04:16:15.373Z,998.43
2017-03-21T04:17:27.941Z,998.5
2017-03-21T04:18:40.464Z,998.51
2017-03-21T04:19:52.710Z,998.53
2017-03-21T04:21:05.251Z,998.52
2017-03-21T04:22:17.790Z,998.52
2017-03-21T04:23:30.018Z,998.53
2017-03-21T04:24:42.565Z,998.46
2017-03-21T04:25:55.087Z,998.5
2017-03-21T04:27:07.631Z,998.49
2017-03-21T04:28:20.177Z,998.51
2017-03-21T04:29:32.723Z,998.59
2017-03-21T04:30:45.243Z,998.56
2017-03-21T04:31:57.481Z,998.56
2017-03-21T04:33:10.014Z,998.6
2017-03-21T04:34:22.278Z,998.6
2017-03-21T04:35:34.519Z,998.61
2017-03-21T04:36:47.028Z,998.67
2017-03-21T04:37:59.273Z,998.59
2017-03-21T04:39:11.533Z,998.67
2017-03-21T04:40:24.060Z,998.65
2017-03-21T04:41:36.312Z,998.6
2017-03-21T04:42:48.531Z,998.63
2017-03-21T04:44:01.076Z,998.66
2017-03-21T04:45:13.019Z,998.64
2017-03-21T04:46:24.941Z,998.67
2017-03-21T04:47:37.490Z,998.71
2017-03-21T04:48:49.416Z,998.75
2017-03-21T04:50:01.653Z,998.7
2017-03-21T04:51:13.581Z,998.74
2017-03-21T04:52:25.812Z,998.71
2017-03-21T04:53:37.737Z,998.76
2017-03-21T04:54:50.282Z,998.77
2017-03-21T04:56:02.857Z,998.8
2017-03-21T04:57:15.451Z,998.79
2017-03-21T04:58:27.704Z,998.76
2017-03-21T04:59:39.901Z,998.79
2017-03-21T05:00:52.435Z,998.79
2017-03-21T05:02:04.961Z,998.82
2017-03-21T05:03:17.210Z,998.83
2017-03-21T05:04:29.485Z,998.89
2017-03-21T05:05:42.029Z,998.87
2017-03-21T05:06:54.246Z,998.85
2017-03-21T05:08:06.792Z,998.93
2017-03-21T05:09:19.313Z,998.97
2017-03-21T05:10:31.269Z,998.88
2017-03-21T05:11:43.796Z,998.85
2017-03-21T05:12:56.343Z,998.89
2017-03-21T05:14:08.875Z,998.88
2017-03-21T05:15:21.120Z,998.97
2017-03-21T05:16:33.667Z,998.97
2017-03-21T05:17:46.216Z,999.01
2017-03-21T05:18:58.433Z,998.98
2017-03-21T05:20:10.696Z,998.99
2017-03-21T05:21:23.254Z,998.96
2017-03-21T05:22:35.793Z,998.96
2017-03-21T05:23:48.342Z,998.92
2017-03-21T05:25:00.584Z,998.97
2017-03-21T05:26:12.809Z,998.97
2017-03-21T05:27:25.077Z,998.99
2017-03-21T05:28:37.575Z,998.98
2017-03-21T05:29:50.135Z,998.98
2017-03-21T05:31:02.390Z,998.97
2017-03-21T05:32:14.940Z,999.02
2017-03-21T05:33:27.500Z,999.03
2017-03-21T05:34:40.029Z,999.07
2017-03-21T05:35:52.604Z,999.05
2017-03-21T05:37:05.146Z,999.04
2017-03-21T05:38:17.669Z,999.02
2017-03-21T05:39:30.187Z,998.99
2017-03-21T05:40:42.739Z,999.06
2017-03-21T05:41:55.255Z,999.07
2017-03-21T05:43:07.519Z,999.09
2017-03-21T05:44:20.089Z,999.12
2017-03-21T05:45:32.644Z,999.11
2017-03-21T05:46:45.207Z,999.11
2017-03-21T05:47:57.732Z,999.13
2017-03-21T05:49:10.524Z,999.13
2017-03-21T05:50:23.066Z,999.14
2017-03-21T05:51:35.622Z,999.11
2017-03-21T05:52:48.183Z,999.14
2017-03-21T05:54:00.740Z,999.17
2017-03-21T05:55:13.298Z,999.19
2017-03-21T05:56:25.553Z,999.2
2017-03-21T05:57:38.105Z,999.17
2017-03-21T05:58:50.650Z,999.22
2017-03-21T06:00:02.915Z,999.19
2017-03-21T06:01:15.166Z,999.21
2017-03-21T06:02:27.711Z,999.22
2017-03-21T06:03:40.278Z,999.16
2017-03-21T06:04:53.077Z,999.2
2017-03-21T06:06:05.324Z,999.17
2017-03-21T06:07:17.866Z,999.17
2017-03-21T06:08:30.388Z,999.24
2017-03-21T06:09:42.908Z,999.22
2017-03-21T06:10:55.461Z,999.21
2017-03-21T06:12:08.003Z,999.26
2017-03-21T06:13:20.255Z,999.3
2017-03-21T06:14:32.492Z,999.28
2017-03-21T06:15:44.716Z,999.29
2017-03-21T06:16:56.943Z,999.28
2017-03-21T06:18:09.157Z,999.33
2017-03-21T06:19:21.705Z,999.31
2017-03-21T06:20:34.275Z,999.3
2017-03-21T06:21:46.546Z,999.32
2017-03-21T06:22:58.767Z,999.34
2017-03-21T06:24:11.009Z,999.33
2017-03-21T06:25:23.562Z,999.37
2017-03-21T06:26:36.052Z,999.31
2017-03-21T06:27:48.574Z,999.34
2017-03-21T06:29:00.801Z,999.31
2017-03-21T06:30:13.338Z,999.3
2017-03-21T06:31:25.564Z,999.27
2017-03-21T06:32:38.108Z,999.37
2017-03-21T06:33:50.353Z,999.42
2017-03-21T06:35:02.592Z,999.42
2017-03-21T06:36:14.864Z,999.49
2017-03-21T06:37:27.381Z,999.41
2017-03-21T06:38:39.893Z,999.38
2017-03-21T06:39:52.434Z,999.44
2017-03-21T06:41:04.952Z,999.46
2017-03-21T06:42:17.173Z,999.58
2017-03-21T06:43:29.719Z,999.45
2017-03-21T06:44:42.272Z,999.4
2017-03-21T06:45:54.814Z,999.4
2017-03-21T06:47:07.035Z,999.41
2017-03-21T06:48:19.261Z,999.41
2017-03-21T06:49:31.824Z,999.44
2017-03-21T06:50:44.047Z,999.42
2017-03-21T06:51:56.610Z,999.47
2017-03-21T06:53:09.136Z,999.48
2017-03-21T06:54:21.682Z,999.47
2017-03-21T06:55:34.235Z,999.58
2017-03-21T06:56:46.820Z,999.61
2017-03-21T06:57:59.077Z,999.88
2017-03-21T06:59:11.304Z,999.95
2017-03-21T07:00:23.858Z,999.96
2017-03-21T07:01:36.407Z,999.97
2017-03-21T07:02:48.658Z,1000
2017-03-21T07:04:01.195Z,1000.01
2017-03-21T07:05:13.744Z,1000.02
2017-03-21T07:06:25.990Z,1000.05
2017-03-21T07:07:38.212Z,1000.17
2017-03-21T07:08:50.767Z,1000.13
2017-03-21T07:10:03.261Z,1000.22
2017-03-21T07:11:15.205Z,1000.16
2017-03-21T07:12:27.123Z,1000.18
2017-03-21T07:13:39.368Z,1000.2
2017-03-21T07:14:51.890Z,1000.24
2017-03-21T07:16:04.425Z,1000.2
2017-03-21T07:17:16.979Z,1000.27
2017-03-21T07:18:29.203Z,1000.26
2017-03-21T07:19:41.741Z,1000.29
2017-03-21T07:20:54.242Z,1000.31
2017-03-21T07:22:06.791Z,1000.33
2017-03-21T07:23:19.334Z,1000.36
2017-03-21T07:24:31.260Z,1000.4
2017-03-21T07:25:43.785Z,1000.41
2017-03-21T07:26:56.017Z,1000.47
2017-03-21T07:28:08.271Z,1000.45
2017-03-21T07:29:20.818Z,1000.56
2017-03-21T07:30:33.362Z,1000.57
2017-03-21T07:31:45.908Z,1000.56
2017-03-21T07:32:57.879Z,1000.57
2017-03-21T07:34:09.824Z,1000.63
2017-03-21T07:35:22.324Z,1000.62
2017-03-21T07:36:34.894Z,1000.64
2017-03-21T07:37:47.438Z,1000.67
2017-03-21T07:39:00.007Z,1000.63
2017-03-21T07:40:12.555Z,1000.65
2017-03-21T07:41:25.097Z,1000.73
2017-03-21T07:42:37.617Z,1000.71
2017-03-21T07:43:49.863Z,1000.7
2017-03-21T07:45:02.114Z,1000.72
2017-03-21T07:46:14.351Z,1000.66
2017-03-21T07:47:26.857Z,1000.65
2017-03-21T07:48:39.401Z,1000.6
2017-03-21T07:49:51.662Z,1000.6
2017-03-21T07:51:04.217Z,1000.61
2017-03-21T07:52:16.764Z,1000.63
2017-03-21T07:53:29.010Z,1000.65
2017-03-21T07:54:41.561Z,1000.71
2017-03-21T07:55:54.076Z,1000.7
2017-03-21T07:57:06.622Z,1000.66
2017-03-21T07:58:18.865Z,1000.65
2017-03-21T07:59:31.114Z,1000.61
2017-03-21T08:00:43.662Z,1000.58
2017-03-21T08:01:55.903Z,1000.58
2017-03-21T08:03:08.466Z,1000.57
2017-03-21T08:04:21.004Z,1000.54
2017-03-21T08:05:33.540Z,1000.52
2017-03-21T08:06:46.064Z,1000.46
2017-03-21T08:07:58.602Z,1000.49
2017-03-21T08:09:10.548Z,1000.5
2017-03-21T08:10:22.820Z,1000.47
2017-03-21T08:11:35.374Z,1000.45
2017-03-21T08:12:47.316Z,1000.42
2017-03-21T08:13:59.861Z,1000.36
2017-03-21T08:15:12.088Z,1000.37
2017-03-21T08:16:24.604Z,1000.37
2017-03-21T08:17:37.142Z,1000.37
2017-03-21T08:18:49.346Z,1000.37
2017-03-21T08:20:01.575Z,1000.41
2017-03-21T08:21:14.141Z,1000.42
2017-03-21T08:22:26.079Z,1000.46
2017-03-21T08:23:38.329Z,1000.44
2017-03-21T08:24:50.871Z,1000.43
2017-03-21T08:26:03.131Z,1000.43
2017-03-21T08:27:15.720Z,1000.5
2017-03-21T08:28:28.238Z,1000.52
2017-03-21T08:29:40.776Z,1000.54
2017-03-21T08:30:53.297Z,1000.6
2017-03-21T08:32:05.828Z,1000.62
2017-03-21T08:33:18.077Z,1000.65
2017-03-21T08:34:30.572Z,1000.63
2017-03-21T08:35:42.788Z,1000.75
2017-03-21T08:36:55.341Z,1000.73
2017-03-21T08:38:07.563Z,1000.78
2017-03-21T08:39:19.518Z,1000.76
2017-03-21T08:40:31.776Z,1000.73
2017-03-21T08:41:43.714Z,1000.78
2017-03-21T08:42:56.244Z,1000.77
2017-03-21T08:44:08.480Z,1000.85
2017-03-21T08:45:21.009Z,1001
2017-03-21T08:46:32.927Z,1001.06
2017-03-21T08:47:45.154Z,1001.12
2017-03-21T08:48:57.693Z,1001.19
2017-03-21T08:50:10.244Z,1001.26
2017-03-21T08:51:22.481Z,1001.27
2017-03-21T08:52:35.005Z,1001.23
2017-03-21T08:53:47.503Z,1001.22
2017-03-21T08:54:59.453Z,1001.21
2017-03-21T08:56:11.711Z,1001.17
2017-03-21T08:57:24.236Z,1001.21
2017-03-21T08:58:36.707Z,1001.21
2017-03-21T08:59:49.225Z,1001.18
2017-03-21T09:01:01.827Z,1001.28
2017-03-21T09:02:14.354Z,1001.36
2017-03-21T09:03:26.898Z,1001.4
2017-03-21T09:04:39.143Z,1001.47
2017-03-21T09:05:51.692Z,1001.49
2017-03-21T09:07:04.212Z,1001.39
2017-03-21T09:08:16.721Z,1001.29
2017-03-21T09:09:28.951Z,1001.39
2017-03-21T09:10:41.195Z,1001.47
2017-03-21T09:11:53.119Z,1001.41
2017-03-21T09:13:04.762Z,1001.25
2017-03-21T09:14:17.284Z,1001.23
2017-03-21T09:15:29.483Z,1001.22
2017-03-21T09:16:41.699Z,1001.2
2017-03-21T09:17:53.949Z,1001.2
2017-03-21T09:19:06.223Z,1001.23
2017-03-21T09:20:18.782Z,1001.29
2017-03-21T09:21:31.038Z,1001.23
2017-03-21T09:22:43.579Z,1001.17
2017-03-21T09:23:56.099Z,1001.09
2017-03-21T09:25:08.622Z,1001.2
2017-03-21T09:26:21.170Z,1001.13
2017-03-21T09:27:33.387Z,1001.1
2017-03-21T09:28:45.911Z,1001.09
2017-03-21T09:29:58.456Z,1001
2017-03-21T09:31:10.693Z,1000.91
2017-03-21T09:32:23.230Z,1000.86
2017-03-21T09:33:35.442Z,1001.08
2017-03-21T09:34:47.959Z,1001.1
2017-03-21T09:36:00.513Z,1000.82
2017-03-21T09:37:12.479Z,1000.84
2017-03-21T09:38:24.679Z,1000.85
2017-03-21T09:39:36.904Z,1000.88
2017-03-21T09:40:49.423Z,1000.96
2017-03-21T09:42:01.948Z,1001.13
2017-03-21T09:43:14.160Z,1001.27
2017-03-21T09:44:26.690Z,1001.22
2017-03-21T09:45:39.205Z,1001.33
2017-03-21T09:46:51.757Z,1001.39
2017-03-21T09:48:03.971Z,1001.38
2017-03-21T09:49:16.219Z,1001.35
2017-03-21T09:50:28.764Z,1001.32
2017-03-21T09:51:41.005Z,1001.3
2017-03-21T09:52:52.962Z,1001.33
2017-03-21T09:54:05.518Z,1001.32
2017-03-21T09:55:17.172Z,1001.29
2017-03-21T09:56:29.714Z,1001.24
2017-03-21T09:57:41.981Z,1001.24
2017-03-21T09:58:54.206Z,1001.26
2017-03-21T10:00:06.748Z,1001.28
2017-03-21T10:01:19.323Z,1001.28
2017-03-21T10:02:31.850Z,1001.27
2017-03-21T10:03:44.365Z,1001.32
2017-03-21T10:04:56.893Z,1001.34
2017-03-21T10:06:09.410Z,1001.31
2017-03-21T10:07:21.630Z,1001.39
2017-03-21T10:08:34.171Z,1001.4
2017-03-21T10:09:46.704Z,1001.44
2017-03-21T10:10:59.243Z,1001.53
2017-03-21T10:12:11.511Z,1001.6
2017-03-21T10:13:23.760Z,1001.57
2017-03-21T10:14:36.006Z,1001.64
2017-03-21T10:15:47.930Z,1001.7
2017-03-21T10:17:00.151Z,1001.8
2017-03-21T10:18:12.395Z,1001.67
2017-03-21T10:19:24.928Z,1001.69
2017-03-21T10:20:37.190Z,1001.77
2017-03-21T10:21:49.734Z,1001.8
2017-03-21T10:23:02.291Z,1001.76
2017-03-21T10:24:14.489Z,1001.86
2017-03-21T10:25:26.745Z,1001.78
2017-03-21T10:26:38.972Z,1001.83
2017-03-21T10:27:51.483Z,1001.83
2017-03-21T10:29:04.012Z,1001.84
2017-03-21T10:30:16.250Z,1001.81
2017-03-21T10:31:28.499Z,1001.79
2017-03-21T10:32:41.017Z,1001.72
2017-03-21T10:33:53.571Z,1001.71
2017-03-21T10:35:05.805Z,1001.67
2017-03-21T10:36:18.059Z,1001.72
2017-03-21T10:37:30.579Z,1001.78
2017-03-21T10:38:43.142Z,1001.78
2017-03-21T10:39:55.371Z,1001.75
2017-03-21T10:41:07.589Z,1001.74
2017-03-21T10:42:19.827Z,1001.76
2017-03-21T10:43:32.373Z,1001.8
2017-03-21T10:44:44.606Z,1001.78
2017-03-21T10:45:57.168Z,1001.81
2017-03-21T10:47:09.719Z,1001.73
2017-03-21T10:48:22.246Z,1001.66
2017-03-21T10:49:34.756Z,1001.63
2017-03-21T10:50:46.981Z,1001.59
2017-03-21T10:51:59.530Z,1001.65
2017-03-21T10:53:11.773Z,1001.66
2017-03-21T10:54:23.715Z,1001.7
2017-03-21T10:55:36.242Z,1001.7
2017-03-21T10:56:48.805Z,1001.71
2017-03-21T10:58:01.307Z,1001.67
2017-03-21T10:59:13.545Z,1001.69
2017-03-21T11:00:26.075Z,1001.67
2017-03-21T11:01:38.618Z,1001.64
2017-03-21T11:02:50.845Z,1001.74
2017-03-21T11:04:03.386Z,1001.92
2017-03-21T11:05:15.606Z,1001.94
2017-03-21T11:06:28.157Z,1001.92
2017-03-21T11:07:39.801Z,1001.97
2017-03-21T11:08:52.019Z,1001.86
2017-03-21T11:10:04.565Z,1001.94
2017-03-21T11:11:17.107Z,1001.9
2017-03-21T11:12:29.035Z,1001.89
2017-03-21T11:13:41.665Z,1001.86
2017-03-21T11:14:54.199Z,1001.81
2017-03-21T11:16:06.444Z,1001.77
2017-03-21T11:17:18.408Z,1001.79
2017-03-21T11:18:30.633Z,1001.79
2017-03-21T11:19:43.461Z,1001.77
2017-03-21T11:20:56.022Z,1001.71
2017-03-21T11:22:08.552Z,1001.72
2017-03-21T11:23:20.475Z,1001.81
2017-03-21T11:24:32.416Z,1001.79
2017-03-21T11:25:44.665Z,1001.76
2017-03-21T11:26:56.903Z,1001.76
2017-03-21T11:28:09.129Z,1001.82
2017-03-21T11:29:21.675Z,1001.79
2017-03-21T11:30:34.201Z,1001.86
2017-03-21T11:31:46.438Z,1001.86
2017-03-21T11:32:58.384Z,1001.83
2017-03-21T11:34:10.607Z,1001.83
2017-03-21T11:35:22.904Z,1001.89
2017-03-21T11:36:35.468Z,1001.92
2017-03-21T11:37:47.721Z,1001.95
2017-03-21T11:39:00.243Z,1001.92
2017-03-21T11:40:12.788Z,1001.89
2017-03-21T11:41:25.313Z,1001.9
2017-03-21T11:42:37.536Z,1001.96
2017-03-21T11:43:49.800Z,1001.97
2017-03-21T11:45:02.351Z,1002
2017-03-21T11:46:14.898Z,1001.98
2017-03-21T11:47:26.848Z,1001.98
2017-03-21T11:48:39.406Z,1001.95
2017-03-21T11:49:51.336Z,1001.97
2017-03-21T11:51:03.603Z,1002
2017-03-21T11:52:15.526Z,1001.96
2017-03-21T11:53:28.097Z,1001.95
2017-03-21T11:54:40.340Z,1001.98
2017-03-21T11:55:52.590Z,1001.91
2017-03-21T11:57:04.548Z,1001.91
2017-03-21T11:58:16.794Z,1001.9
2017-03-21T11:59:29.327Z,1001.86
2017-03-21T12:00:41.562Z,1001.93
2017-03-21T12:01:53.797Z,1001.88
2017-03-21T12:03:06.069Z,1001.84
2017-03-21T12:04:18.308Z,1001.87
2017-03-21T12:05:30.556Z,1001.86
2017-03-21T12:06:42.502Z,1001.84
2017-03-21T12:07:54.762Z,1001.87
2017-03-21T12:09:07.015Z,1001.86
2017-03-21T12:10:19.564Z,1001.84
2017-03-21T12:11:31.511Z,1001.91
2017-03-21T12:12:44.037Z,1001.9
2017-03-21T12:13:56.552Z,1001.94
2017-03-21T12:15:09.102Z,1001.97
2017-03-21T12:16:21.022Z,1002.03
2017-03-21T12:17:33.265Z,1001.99
2017-03-21T12:18:45.485Z,1001.92
2017-03-21T12:19:57.731Z,1001.9
2017-03-21T12:21:09.977Z,1001.89
2017-03-21T12:22:22.529Z,1001.93
2017-03-21T12:23:35.046Z,1001.93
2017-03-21T12:24:46.965Z,1001.89
2017-03-21T12:25:59.191Z,1001.85
2017-03-21T12:27:11.745Z,1001.86
2017-03-21T12:28:23.975Z,1001.87
2017-03-21T12:29:36.516Z,1001.82
2017-03-21T12:30:49.044Z,1001.83
2017-03-21T12:32:01.267Z,1001.88
2017-03-21T12:33:13.462Z,1001.85
2017-03-21T12:34:25.399Z,1001.88
2017-03-21T12:35:37.971Z,1001.88
2017-03-21T12:36:49.897Z,1001.9
2017-03-21T12:38:02.417Z,1001.91
2017-03-21T12:39:14.944Z,1001.96
2017-03-21T12:40:27.187Z,1001.9
2017-03-21T12:41:39.429Z,1001.93
2017-03-21T12:42:51.651Z,1001.92
2017-03-21T12:44:03.900Z,1001.92
2017-03-21T12:45:16.485Z,1001.84
2017-03-21T12:46:29.034Z,1001.87
2017-03-21T12:47:41.584Z,1001.85
2017-03-21T12:48:53.805Z,1001.79
2017-03-21T12:50:06.376Z,1001.84
2017-03-21T12:51:18.922Z,1001.84
2017-03-21T12:52:31.168Z,1001.81
2017-03-21T12:53:43.720Z,1001.72
2017-03-21T12:54:55.963Z,1001.66
2017-03-21T12:56:08.213Z,1001.63
2017-03-21T12:57:20.748Z,1001.64
2017-03-21T12:58:32.997Z,1001.59
2017-03-21T12:59:45.528Z,1001.59
2017-03-21T13:00:58.062Z,1001.61
2017-03-21T13:02:10.590Z,1001.58
2017-03-21T13:03:23.098Z,1001.54
2017-03-21T13:04:35.637Z,1001.6
2017-03-21T13:05:47.868Z,1001.62
2017-03-21T13:07:00.372Z,1001.74
2017-03-21T13:08:12.935Z,1001.74
2017-03-21T13:09:25.478Z,1001.74
2017-03-21T13:10:37.711Z,1001.76
2017-03-21T13:11:49.954Z,1001.76
2017-03-21T13:13:02.531Z,1001.79
2017-03-21T13:14:14.495Z,1001.78
2017-03-21T13:15:26.765Z,1001.75
2017-03-21T13:16:38.986Z,1001.77
2017-03-21T13:17:51.524Z,1001.73
2017-03-21T13:19:03.479Z,1001.77
2017-03-21T13:20:15.702Z,1001.81
2017-03-21T13:21:27.929Z,1001.76
2017-03-21T13:22:40.462Z,1001.75
2017-03-21T13:23:52.718Z,1001.67
2017-03-21T13:25:05.274Z,1001.71
2017-03-21T13:26:17.810Z,1001.75
2017-03-21T13:27:29.749Z,1001.82
2017-03-21T13:28:41.673Z,1001.82
2017-03-21T13:29:53.916Z,1001.77
2017-03-21T13:31:06.466Z,1001.75
2017-03-21T13:32:19.012Z,1001.79
2017-03-21T13:33:31.583Z,1001.82
2017-03-21T13:34:43.820Z,1001.75
2017-03-21T13:35:56.350Z,1001.79
2017-03-21T13:37:08.583Z,1001.83
2017-03-21T13:38:20.812Z,1001.76
2017-03-21T13:39:33.336Z,1001.76
2017-03-21T13:40:45.858Z,1001.74
2017-03-21T13:41:58.056Z,1001.76
2017-03-21T13:43:10.276Z,1001.73
2017-03-21T13:44:22.876Z,1001.62
2017-03-21T13:45:34.819Z,1001.61
2017-03-21T13:46:47.380Z,1001.49
2017-03-21T13:47:59.923Z,1001.49
2017-03-21T13:49:12.450Z,1001.56
2017-03-21T13:50:25.007Z,1001.65
2017-03-21T13:51:37.227Z,1001.6
2017-03-21T13:52:49.441Z,1001.61
2017-03-21T13:54:01.059Z,1001.63
2017-03-21T13:55:12.956Z,1001.54
2017-03-21T13:56:25.450Z,1001.36
2017-03-21T13:57:37.368Z,1001.19
2017-03-21T13:58:49.618Z,1001.19
2017-03-21T14:00:02.139Z,1001.3
2017-03-21T14:01:14.390Z,1001.37
2017-03-21T14:02:26.633Z,1001.42
2017-03-21T14:03:39.126Z,1001.52
2017-03-21T14:04:51.347Z,1001.57
2017-03-21T14:06:03.275Z,1001.52
2017-03-21T14:07:15.551Z,1001.61
2017-03-21T14:08:27.786Z,1001.65
2017-03-21T14:09:40.335Z,1001.7
2017-03-21T14:10:52.581Z,1001.7
2017-03-21T14:12:04.799Z,1001.72
2017-03-21T14:13:17.040Z,1001.72
2017-03-21T14:14:29.596Z,1001.71
2017-03-21T14:15:41.536Z,1001.7
2017-03-21T14:16:53.757Z,1001.76
2017-03-21T14:18:05.703Z,1001.74
2017-03-21T14:19:17.927Z,1001.74
2017-03-21T14:20:29.850Z,1001.76
2017-03-21T14:21:42.069Z,1001.78
2017-03-21T14:22:54.288Z,1001.75
2017-03-21T14:24:06.836Z,1001.7
2017-03-21T14:25:19.087Z,1001.74
2017-03-21T14:26:31.341Z,1001.73
2017-03-21T14:27:43.577Z,1001.72
2017-03-21T14:28:55.845Z,1001.75
2017-03-21T14:30:08.396Z,1001.75
2017-03-21T14:31:20.958Z,1001.68
2017-03-21T14:32:33.206Z,1001.64
2017-03-21T14:33:45.750Z,1001.59
2017-03-21T14:34:57.371Z,1001.65
2017-03-21T14:36:09.287Z,1001.6
2017-03-21T14:37:21.812Z,1001.61
2017-03-21T14:38:33.437Z,1001.59
2017-03-21T14:39:45.388Z,1001.67
2017-03-21T14:40:57.903Z,1001.59
2017-03-21T14:42:09.549Z,1001.64
2017-03-21T14:43:21.760Z,1001.62
2017-03-21T14:44:33.988Z,1001.63
2017-03-21T14:45:46.509Z,1001.61
2017-03-21T14:46:58.750Z,1001.57
2017-03-21T14:48:11.319Z,1001.56
2017-03-21T14:49:23.577Z,1001.58
2017-03-21T14:50:35.799Z,1001.55
2017-03-21T14:51:48.333Z,1001.59